Archer City, TX

9:23 PM CDT on March 29, 2015 (GMT -0500)
Sheppard Air Force Base-Wichita Falls Municipal | | Change Station
CLOSE
Current Station
Airport
Location: Wichita Falls,
Elevation: 1030 ft
Nearby Weather Stations

Elev 1030 ft 33.98 °N, 98.49 °W | Updated 31 minutes ago

Clear
Clear
62 °F
Feels Like 62 °F
N
10
Wind Variable Wind from NNE

Today
High -- | Low -- °F
--% Chance of Precip.
Yesterday
High -- | Low -- °F
Precip. -- in
7:26 AM 7:52 PM
Waxing Gibbous, 76% visible
Pressure 30.06 in
Visibility 10.0 miles
Clouds Clear
Dew Point 48 °F
Humidity 60%
Rainfall 0.00 in
Snow Depth Not available.
UV 0 out of 12
Pollen 11.10 out of 12
Air Quality Not available.
Flu Activity Not available.
METAR KSPS 300152Z AUTO 02009KT 10SM CLR 17/09 A3007 RMK AO2 SLP178 T01670089

More Conditions Fewer Conditions

Pressure 30.06 in
Visibility 10.0 miles
Clouds Clear
Dew Point 48 °F
Humidity 60%
Rainfall 0.00 in
Snow Depth Not available.
UV 0 out of 12
Pollen 11.10 out of 12
Air Quality Not available.
Flu Activity Not available.
METAR KSPS 300152Z AUTO 02009KT 10SM CLR 17/09 A3007 RMK AO2 SLP178 T01670089

More Conditions Fewer Conditions

10-Day Weather Forecast

Almanac

Astronomy

Mar. 29, 2015 Rise Set
Actual Time
Civil Twilight
Nautical Twilight
Astronomical Twilight
Moon
Length of Visible Light
Length of Day
Tomorrow will be .
, % of the Moon is Illuminated

Today's Extremes

State Highs State Lows

Community

WunderPhotos

Upload Photos

1,809,414 photos uploaded!

WunderBlogs® & News

Nearby

Air Quality

  Air Quality AQ Index Pollutant
Not available.

Snow Depth

Station Depth Elevation

Earthquake Activity

City Distance Mag. Time & Date
Minimum magnitude displayed is 2.5.

Coastal Water Temperatures

Place Temperature

Stations

Nearby Weather Stations

Station Location Temp. Windchill Dew Point Humidity Wind Precip. Elev Updated Type